createdAt,value
2019-05-12T00:02:23.034Z,100951.00
2019-05-12T00:04:58.157Z,100974.00
2019-05-12T00:07:29.542Z,100948.00
2019-05-12T00:10:02.323Z,100945.00
2019-05-12T00:12:34.900Z,100931.00
2019-05-12T00:15:08.213Z,100925.00
2019-05-12T00:17:41.899Z,100913.00
2019-05-12T00:20:14.837Z,100932.00
2019-05-12T00:22:50.666Z,100910.00
2019-05-12T00:25:23.068Z,100913.00
2019-05-12T00:27:58.438Z,100898.00
2019-05-12T00:30:34.520Z,100901.00
2019-05-12T00:33:09.370Z,100878.00
2019-05-12T00:35:41.928Z,100879.00
2019-05-12T00:38:14.720Z,100879.00
2019-05-12T00:40:48.007Z,100870.00
2019-05-12T00:43:20.773Z,100866.00
2019-05-12T00:45:53.701Z,100863.00
2019-05-12T00:48:28.233Z,100864.00
2019-05-12T00:51:00.148Z,100844.00
2019-05-12T00:53:39.906Z,100839.00
2019-05-12T00:56:08.462Z,100834.00
2019-05-12T00:58:41.285Z,100839.00
2019-05-12T01:01:18.245Z,100818.00
2019-05-12T01:03:49.335Z,100838.00
2019-05-12T01:06:21.938Z,100831.00
2019-05-12T01:08:54.685Z,100834.00
2019-05-12T01:11:28.572Z,100845.00
2019-05-12T01:14:01.668Z,100815.00
2019-05-12T01:16:34.122Z,100829.00
2019-05-12T01:19:43.070Z,100835.00
2019-05-12T01:22:15.565Z,100821.00
2019-05-12T01:24:48.447Z,100806.00
2019-05-12T01:27:21.065Z,100815.00
2019-05-12T01:29:53.811Z,100824.00
2019-05-12T01:32:28.765Z,100794.00
2019-05-12T01:35:01.661Z,100796.00
2019-05-12T01:37:34.253Z,100804.00
2019-05-12T01:40:08.840Z,100786.00
2019-05-12T01:42:41.026Z,100797.00
2019-05-12T01:45:14.027Z,100780.00
2019-05-12T01:47:48.427Z,100752.00
2019-05-12T01:50:20.425Z,100755.00
2019-05-12T01:52:53.193Z,100764.00
2019-05-12T01:55:27.861Z,100751.00
2019-05-12T01:57:59.625Z,100755.00
2019-05-12T02:00:32.499Z,100739.00
2019-05-12T02:03:05.453Z,100751.00
2019-05-12T02:05:39.235Z,100759.00
2019-05-12T02:08:13.682Z,100740.00
2019-05-12T02:10:48.071Z,100752.00
2019-05-12T02:13:20.577Z,100741.00
2019-05-12T02:15:53.271Z,100742.00
2019-05-12T02:18:28.081Z,100720.00
2019-05-12T02:20:59.869Z,100722.00
2019-05-12T02:23:32.513Z,100726.00
2019-05-12T02:26:05.508Z,100685.00
2019-05-12T02:28:39.469Z,100648.00
2019-05-12T02:31:12.327Z,100658.00
2019-05-12T02:33:45.013Z,100622.00
2019-05-12T02:36:17.914Z,100610.00
2019-05-12T02:38:50.580Z,100587.00
2019-05-12T02:41:25.652Z,100555.00
2019-05-12T02:43:57.283Z,100523.00
2019-05-12T02:46:30.216Z,100461.00
2019-05-12T02:49:04.815Z,100432.00
2019-05-12T02:51:37.656Z,100453.00
2019-05-12T02:54:10.525Z,100430.00
2019-05-12T02:56:44.901Z,100474.00
2019-05-12T02:59:18.606Z,100415.00
2019-05-12T03:01:55.075Z,100439.00
2019-05-12T03:04:29.198Z,100455.00
2019-05-12T03:07:06.504Z,100470.00
2019-05-12T03:09:37.768Z,100452.00
2019-05-12T03:12:10.581Z,100474.00
2019-05-12T03:14:44.797Z,100444.00
2019-05-12T03:17:17.232Z,100439.00
2019-05-12T03:19:50.276Z,100427.00
2019-05-12T03:22:25.275Z,100410.00
2019-05-12T03:25:14.734Z,100417.00
2019-05-12T03:27:34.884Z,100437.00
2019-05-12T03:30:11.727Z,100447.00
2019-05-12T03:32:47.442Z,100432.00
2019-05-12T03:35:18.007Z,100434.00
2019-05-12T03:37:51.042Z,100438.00
2019-05-12T03:40:24.897Z,100443.00
2019-05-12T03:42:58.202Z,100433.00
2019-05-12T03:45:30.874Z,100435.00
2019-05-12T03:48:04.314Z,100437.00
2019-05-12T03:50:37.307Z,100456.00
2019-05-12T03:53:11.022Z,100460.00
2019-05-12T03:55:46.794Z,100468.00
2019-05-12T03:58:17.923Z,100448.00
2019-05-12T04:00:51.468Z,100451.00
2019-05-12T04:03:24.792Z,100442.00
2019-05-12T04:05:57.628Z,100444.00
2019-05-12T04:08:30.310Z,100420.00
2019-05-12T04:11:05.284Z,100442.00
2019-05-12T04:13:37.084Z,100398.00
2019-05-12T04:16:09.745Z,100405.00
2019-05-12T04:18:45.069Z,100411.00
2019-05-12T04:21:16.479Z,100414.00
2019-05-12T04:23:49.434Z,100415.00
2019-05-12T04:26:25.022Z,100407.00
2019-05-12T04:28:56.330Z,100411.00
2019-05-12T04:31:28.902Z,100401.00
2019-05-12T04:34:04.730Z,100396.00
2019-05-12T04:36:35.957Z,100384.00
2019-05-12T04:39:09.876Z,100374.00
2019-05-12T04:41:44.703Z,100361.00
2019-05-12T04:44:17.079Z,100349.00
2019-05-12T04:46:50.251Z,100381.00
2019-05-12T04:49:25.109Z,100369.00
2019-05-12T04:51:57.303Z,100368.00
2019-05-12T04:54:29.889Z,100352.00
2019-05-12T04:57:04.170Z,100357.00
2019-05-12T04:59:37.797Z,100344.00
2019-05-12T05:02:10.612Z,100337.00
2019-05-12T05:04:44.085Z,100334.00
2019-05-12T05:07:17.008Z,100311.00
2019-05-12T05:09:49.891Z,100333.00
2019-05-12T05:12:23.949Z,100339.00
2019-05-12T05:14:57.841Z,100307.00
2019-05-12T05:17:30.710Z,100299.00
2019-05-12T05:20:04.111Z,100313.00
2019-05-12T05:22:38.269Z,100306.00
2019-05-12T05:25:11.555Z,100289.00
2019-05-12T05:27:44.518Z,100297.00
2019-05-12T05:30:18.875Z,100280.00
2019-05-12T05:32:53.464Z,100269.00
2019-05-12T05:35:28.828Z,100255.00
2019-05-12T05:38:00.071Z,100274.00
2019-05-12T05:40:35.340Z,100268.00
2019-05-12T05:43:18.499Z,100266.00
2019-05-12T05:45:43.707Z,100277.00
2019-05-12T05:48:14.871Z,100253.00
2019-05-12T05:50:47.716Z,100243.00
2019-05-12T05:53:20.221Z,100235.00
2019-05-12T05:55:56.358Z,100237.00
2019-05-12T05:58:28.785Z,100270.00
2019-05-12T06:01:03.765Z,100266.00
2019-05-12T06:03:35.546Z,100243.00
2019-05-12T06:06:12.403Z,100274.00
2019-05-12T06:08:44.254Z,100287.00
2019-05-12T06:11:26.546Z,100262.00
2019-05-12T06:13:53.819Z,100262.00
2019-05-12T06:16:26.323Z,100276.00
2019-05-12T06:19:00.356Z,100272.00
2019-05-12T06:21:36.216Z,100255.00
2019-05-12T06:24:08.786Z,100292.00
2019-05-12T06:26:54.605Z,100306.00
2019-05-12T06:29:20.222Z,100288.00
2019-05-12T06:31:50.291Z,100288.00
2019-05-12T06:34:23.932Z,100297.00
2019-05-12T06:36:57.283Z,100307.00
2019-05-12T06:39:34.217Z,100305.00
2019-05-12T06:42:12.649Z,100295.00
2019-05-12T06:44:43.711Z,100288.00
2019-05-12T06:47:15.683Z,100296.00
2019-05-12T06:49:48.740Z,100298.00
2019-05-12T06:52:23.669Z,100300.00
2019-05-12T06:54:56.796Z,100287.00
2019-05-12T06:57:29.696Z,100293.00
2019-05-12T07:00:04.616Z,100294.00
2019-05-12T07:02:49.035Z,100286.00
2019-05-12T07:05:14.686Z,100275.00
2019-05-12T07:07:47.584Z,100266.00
2019-05-12T07:10:36.803Z,100253.00
2019-05-12T07:13:00.947Z,100246.00
2019-05-12T07:15:29.381Z,100229.00
2019-05-12T07:18:05.361Z,100230.00
2019-05-12T07:20:39.074Z,100231.00
2019-05-12T07:23:11.456Z,100216.00
2019-05-12T07:25:45.073Z,100220.00
2019-05-12T07:28:17.944Z,100214.00
2019-05-12T07:30:51.117Z,100231.00
2019-05-12T07:33:25.592Z,100231.00
2019-05-12T07:36:01.487Z,100227.00
2019-05-12T07:38:34.395Z,100221.00
2019-05-12T07:41:10.631Z,100228.00
2019-05-12T07:43:44.331Z,100219.00
2019-05-12T07:46:17.430Z,100213.00
2019-05-12T07:48:51.024Z,100209.00
2019-05-12T07:51:38.780Z,100195.00
2019-05-12T07:54:08.070Z,100198.00
2019-05-12T07:56:40.969Z,100192.00
2019-05-12T07:59:14.872Z,100178.00
2019-05-12T08:01:52.124Z,100167.00
2019-05-12T08:04:24.436Z,100149.00
2019-05-12T08:06:57.206Z,100143.00
2019-05-12T08:09:32.255Z,100131.00
2019-05-12T08:12:03.995Z,100124.00
2019-05-12T08:14:36.761Z,100127.00
2019-05-12T08:17:12.204Z,100123.00
2019-05-12T08:19:44.483Z,100132.00
2019-05-12T08:22:18.829Z,100134.00
2019-05-12T08:24:53.581Z,100140.00
2019-05-12T08:27:25.208Z,100155.00
2019-05-12T08:30:01.163Z,100144.00
2019-05-12T08:32:33.807Z,100148.00
2019-05-12T08:35:06.349Z,100143.00
2019-05-12T08:37:39.278Z,100147.00
2019-05-12T08:40:12.376Z,100142.00
2019-05-12T08:42:44.945Z,100155.00
2019-05-12T08:45:27.389Z,100143.00
2019-05-12T08:47:54.637Z,100148.00
2019-05-12T08:50:31.409Z,100158.00
2019-05-12T08:53:01.016Z,100147.00
2019-05-12T08:55:35.915Z,100150.00
2019-05-12T08:58:07.591Z,100159.00
2019-05-12T09:00:46.383Z,100151.00
2019-05-12T09:03:20.546Z,100150.00
2019-05-12T09:05:53.541Z,100147.00
2019-05-12T09:08:25.365Z,100152.00
2019-05-12T09:10:58.235Z,100138.00
2019-05-12T09:13:30.952Z,100147.00
2019-05-12T09:16:04.373Z,100139.00
2019-05-12T09:18:39.240Z,100146.00
2019-05-12T09:21:13.881Z,100140.00
2019-05-12T09:23:45.675Z,100137.00
2019-05-12T09:26:26.680Z,100134.00
2019-05-12T09:28:54.274Z,100140.00
2019-05-12T09:31:29.527Z,100128.00
2019-05-12T09:34:10.974Z,100137.00
2019-05-12T09:36:36.861Z,100140.00
2019-05-12T09:39:10.269Z,100138.00
2019-05-12T09:41:49.476Z,100142.00
2019-05-12T09:44:20.246Z,100142.00
2019-05-12T09:46:53.413Z,100144.00
2019-05-12T09:49:31.371Z,100152.00
2019-05-12T09:52:03.582Z,100156.00
2019-05-12T09:54:40.946Z,100152.00
2019-05-12T09:57:10.400Z,100142.00
2019-05-12T09:59:45.876Z,100149.00
2019-05-12T10:02:20.590Z,100139.00
2019-05-12T10:04:56.481Z,100147.00
2019-05-12T10:07:25.512Z,100142.00
2019-05-12T10:09:59.181Z,100144.00
2019-05-12T10:12:38.648Z,100142.00
2019-05-12T10:15:09.276Z,100145.00
2019-05-12T10:17:43.540Z,100141.00
2019-05-12T10:20:21.523Z,100127.00
2019-05-12T10:22:54.254Z,100120.00
2019-05-12T10:25:28.485Z,100116.00
2019-05-12T10:28:03.035Z,100114.00
2019-05-12T10:30:35.508Z,100110.00
2019-05-12T10:33:09.086Z,100095.00
2019-05-12T10:35:44.233Z,100101.00
2019-05-12T10:38:16.060Z,100095.00
2019-05-12T10:40:49.080Z,100105.00
2019-05-12T10:43:23.521Z,100109.00
2019-05-12T10:45:56.143Z,100117.00
2019-05-12T10:48:28.912Z,100107.00
2019-05-12T10:51:01.428Z,100117.00
2019-05-12T10:53:34.445Z,100100.00
2019-05-12T10:56:07.436Z,100114.00
2019-05-12T10:58:40.101Z,100126.00
2019-05-12T11:01:13.383Z,100127.00
2019-05-12T11:03:50.702Z,100116.00
2019-05-12T11:06:20.863Z,100107.00
2019-05-12T11:08:54.103Z,100118.00
2019-05-12T11:11:32.134Z,100104.00
2019-05-12T11:14:14.254Z,100111.00
2019-05-12T11:16:46.616Z,100125.00
2019-05-12T11:19:19.426Z,100120.00
2019-05-12T11:21:53.596Z,100134.00
2019-05-12T11:24:26.369Z,100108.00
2019-05-12T11:26:59.358Z,100115.00
2019-05-12T11:29:43.329Z,100124.00
2019-05-12T11:32:06.580Z,100112.00
2019-05-12T11:34:40.263Z,100133.00
2019-05-12T11:37:13.845Z,100117.00
2019-05-12T11:39:48.804Z,100134.00
2019-05-12T11:42:20.610Z,100136.00
2019-05-12T11:44:53.425Z,100138.00
2019-05-12T11:47:29.477Z,100134.00
2019-05-12T11:50:13.104Z,100127.00
2019-05-12T11:52:45.923Z,100148.00
2019-05-12T11:55:21.239Z,100147.00
2019-05-12T11:57:54.435Z,100147.00
2019-05-12T12:00:28.503Z,100145.00
2019-05-12T12:03:03.767Z,100147.00
2019-05-12T12:05:39.635Z,100144.00
2019-05-12T12:08:14.194Z,100162.00
2019-05-12T12:10:48.995Z,100159.00
2019-05-12T12:13:25.634Z,100152.00
2019-05-12T12:15:55.015Z,100161.00
2019-05-12T12:18:28.169Z,100168.00
2019-05-12T12:21:05.764Z,100168.00
2019-05-12T12:23:35.386Z,100162.00
2019-05-12T12:26:08.055Z,100172.00
2019-05-12T12:28:40.866Z,100165.00
2019-05-12T12:31:13.535Z,100170.00
2019-05-12T12:33:47.130Z,100171.00
2019-05-12T12:36:21.102Z,100165.00
2019-05-12T12:38:54.158Z,100187.00
2019-05-12T12:41:26.862Z,100169.00
2019-05-12T12:43:59.721Z,100158.00
2019-05-12T12:46:33.808Z,100176.00
2019-05-12T12:49:10.372Z,100180.00
2019-05-12T12:51:40.922Z,100185.00
2019-05-12T12:54:14.119Z,100183.00
2019-05-12T12:56:46.870Z,100187.00
2019-05-12T12:59:19.826Z,100197.00
2019-05-12T13:01:52.618Z,100202.00
2019-05-12T13:04:28.516Z,100200.00
2019-05-12T13:07:00.017Z,100223.00
2019-05-12T13:09:33.621Z,100229.00
2019-05-12T13:12:14.440Z,100237.00
2019-05-12T13:14:40.662Z,100241.00
2019-05-12T13:17:14.210Z,100239.00
2019-05-12T13:19:48.906Z,100241.00
2019-05-12T13:22:24.387Z,100228.00
2019-05-12T13:24:58.338Z,100243.00
2019-05-12T13:27:30.461Z,100258.00
2019-05-12T13:30:05.428Z,100244.00
2019-05-12T13:32:38.064Z,100266.00
2019-05-12T13:35:16.281Z,100272.00
2019-05-12T13:37:50.345Z,100273.00
2019-05-12T13:40:23.446Z,100275.00
2019-05-12T13:42:56.385Z,100268.00
2019-05-12T13:45:29.625Z,100274.00
2019-05-12T13:48:03.859Z,100274.00
2019-05-12T13:50:37.017Z,100291.00
2019-05-12T13:53:10.395Z,100274.00
2019-05-12T13:55:48.221Z,100288.00
2019-05-12T13:58:18.906Z,100292.00
2019-05-12T14:01:13.575Z,100291.00
2019-05-12T14:03:29.789Z,100301.00
2019-05-12T14:06:03.553Z,100290.00
2019-05-12T14:08:36.596Z,100290.00
2019-05-12T14:11:09.986Z,100293.00
2019-05-12T14:13:42.688Z,100299.00
2019-05-12T14:16:15.724Z,100299.00
2019-05-12T14:18:51.162Z,100294.00
2019-05-12T14:21:24.461Z,100301.00
2019-05-12T14:23:57.585Z,100299.00
2019-05-12T14:26:39.303Z,100297.00
2019-05-12T14:29:10.726Z,100290.00
2019-05-12T14:31:50.035Z,100292.00
2019-05-12T14:34:20.844Z,100289.00
2019-05-12T14:37:05.619Z,100288.00
2019-05-12T14:39:29.751Z,100298.00
2019-05-12T14:42:04.369Z,100304.00
2019-05-12T14:44:43.867Z,100309.00
2019-05-12T14:47:12.141Z,100303.00
2019-05-12T14:49:44.993Z,100306.00
2019-05-12T14:52:18.136Z,100305.00
2019-05-12T14:54:51.011Z,100309.00
2019-05-12T14:57:24.342Z,100299.00
2019-05-12T14:59:57.674Z,100314.00
2019-05-12T15:02:30.547Z,100314.00
2019-05-12T15:05:06.541Z,100334.00
2019-05-12T15:07:42.624Z,100338.00
2019-05-12T15:10:13.966Z,100324.00
2019-05-12T15:12:46.151Z,100330.00
2019-05-12T15:15:20.626Z,100336.00
2019-05-12T15:17:56.627Z,100326.00
2019-05-12T15:20:27.590Z,100310.00
2019-05-12T15:23:03.753Z,100335.00
2019-05-12T15:25:37.269Z,100332.00
2019-05-12T15:28:10.674Z,100331.00
2019-05-12T15:30:43.599Z,100339.00
2019-05-12T15:33:16.872Z,100348.00
2019-05-12T15:35:49.668Z,100353.00
2019-05-12T15:38:23.910Z,100356.00
2019-05-12T15:40:57.405Z,100359.00
2019-05-12T15:43:35.084Z,100363.00
2019-05-12T15:46:04.698Z,100362.00
2019-05-12T15:48:37.849Z,100368.00
2019-05-12T15:51:10.893Z,100366.00
2019-05-12T15:53:44.610Z,100367.00
2019-05-12T15:56:23.114Z,100383.00
2019-05-12T15:58:55.752Z,100379.00
2019-05-12T16:01:27.225Z,100372.00
2019-05-12T16:04:00.017Z,100354.00
2019-05-12T16:06:33.707Z,100361.00
2019-05-12T16:09:07.631Z,100354.00
2019-05-12T16:11:40.735Z,100361.00
2019-05-12T16:14:13.722Z,100370.00
2019-05-12T16:16:47.124Z,100371.00
2019-05-12T16:19:20.159Z,100374.00
2019-05-12T16:21:54.118Z,100377.00
2019-05-12T16:24:27.469Z,100389.00
2019-05-12T16:27:00.669Z,100395.00
2019-05-12T16:29:33.987Z,100400.00
2019-05-12T16:32:07.189Z,100404.00
2019-05-12T16:34:44.873Z,100410.00
2019-05-12T16:37:14.292Z,100407.00
2019-05-12T16:39:48.671Z,100405.00
2019-05-12T16:42:23.488Z,100419.00
2019-05-12T16:45:05.333Z,100425.00
2019-05-12T16:47:32.879Z,100428.00
2019-05-12T16:50:08.505Z,100428.00
2019-05-12T16:52:40.598Z,100438.00
2019-05-12T16:55:12.954Z,100446.00
2019-05-12T16:57:51.433Z,100453.00
2019-05-12T17:00:20.256Z,100490.00
2019-05-12T17:02:57.645Z,100478.00
2019-05-12T17:05:27.312Z,100469.00
2019-05-12T17:08:00.281Z,100480.00
2019-05-12T17:10:33.795Z,100489.00
2019-05-12T17:13:07.344Z,100487.00
2019-05-12T17:15:43.201Z,100483.00
2019-05-12T17:18:15.755Z,100496.00
2019-05-12T17:20:51.126Z,100500.00
2019-05-12T17:23:25.237Z,100505.00
2019-05-12T17:25:58.153Z,100509.00
2019-05-12T17:28:31.137Z,100518.00
2019-05-12T17:31:04.100Z,100525.00
2019-05-12T17:33:39.268Z,100533.00
2019-05-12T17:36:17.544Z,100533.00
2019-05-12T17:38:51.121Z,100545.00
2019-05-12T17:41:23.756Z,100546.00
2019-05-12T17:44:01.253Z,100560.00
2019-05-12T17:46:32.344Z,100574.00
2019-05-12T17:49:08.459Z,100576.00
2019-05-12T17:51:41.400Z,100581.00
2019-05-12T17:54:21.657Z,100583.00
2019-05-12T17:56:49.003Z,100590.00
2019-05-12T17:59:24.429Z,100590.00
2019-05-12T18:01:57.533Z,100599.00
2019-05-12T18:04:32.501Z,100610.00
2019-05-12T18:07:13.298Z,100631.00
2019-05-12T18:09:40.813Z,100628.00
2019-05-12T18:12:14.035Z,100633.00
2019-05-12T18:14:52.113Z,100637.00
2019-05-12T18:17:23.466Z,100657.00
2019-05-12T18:19:59.550Z,100653.00
2019-05-12T18:22:29.894Z,100658.00
2019-05-12T18:25:04.350Z,100655.00
2019-05-12T18:27:44.623Z,100661.00
2019-05-12T18:30:14.372Z,100668.00
2019-05-12T18:32:46.670Z,100673.00
2019-05-12T18:35:19.577Z,100667.00
2019-05-12T18:37:54.137Z,100682.00
2019-05-12T18:40:28.229Z,100673.00
2019-05-12T18:43:03.913Z,100694.00
2019-05-12T18:45:36.554Z,100694.00
2019-05-12T18:48:20.289Z,100711.00
2019-05-12T18:50:44.202Z,100709.00
2019-05-12T18:53:27.729Z,100707.00
2019-05-12T18:55:53.742Z,100724.00
2019-05-12T18:58:30.845Z,100730.00
2019-05-12T19:00:59.892Z,100726.00
2019-05-12T19:03:44.825Z,100734.00
2019-05-12T19:06:07.003Z,100734.00
2019-05-12T19:08:39.840Z,100753.00
2019-05-12T19:11:19.986Z,100753.00
2019-05-12T19:13:51.731Z,100766.00
2019-05-12T19:16:20.331Z,100755.00
2019-05-12T19:18:55.470Z,100767.00
2019-05-12T19:21:27.262Z,100775.00
2019-05-12T19:23:59.990Z,100771.00
2019-05-12T19:26:38.300Z,100777.00
2019-05-12T19:29:10.003Z,100788.00
2019-05-12T19:31:52.088Z,100789.00
2019-05-12T19:34:22.516Z,100791.00
2019-05-12T19:36:50.849Z,100791.00
2019-05-12T19:39:25.399Z,100798.00
2019-05-12T19:41:58.264Z,100807.00
2019-05-12T19:44:31.550Z,100807.00
2019-05-12T19:47:05.606Z,100821.00
2019-05-12T19:49:47.993Z,100817.00
2019-05-12T19:52:13.938Z,100815.00
2019-05-12T19:54:46.943Z,100844.00
2019-05-12T19:57:27.470Z,100836.00
2019-05-12T20:00:00.141Z,100861.00
2019-05-12T20:02:36.320Z,100874.00
2019-05-12T20:05:09.984Z,100878.00
2019-05-12T20:07:44.651Z,100887.00
2019-05-12T20:10:16.867Z,100888.00
2019-05-12T20:12:54.568Z,100885.00
2019-05-12T20:15:24.114Z,100897.00
2019-05-12T20:17:57.207Z,100905.00
2019-05-12T20:20:36.629Z,100905.00
2019-05-12T20:23:04.225Z,100910.00
2019-05-12T20:25:37.031Z,100933.00
2019-05-12T20:28:11.579Z,100935.00
2019-05-12T20:30:44.277Z,100937.00
2019-05-12T20:33:17.626Z,100940.00
2019-05-12T20:35:50.366Z,100957.00
2019-05-12T20:38:27.147Z,100952.00
2019-05-12T20:40:57.792Z,100970.00
2019-05-12T20:43:35.302Z,100974.00
2019-05-12T20:46:05.637Z,100991.00
2019-05-12T20:48:39.014Z,100971.00
2019-05-12T20:51:15.486Z,100992.00
2019-05-12T20:53:46.189Z,100980.00
2019-05-12T20:56:22.093Z,100999.00
2019-05-12T20:58:54.652Z,101015.00
2019-05-12T21:01:30.291Z,101006.00
2019-05-12T21:04:03.682Z,101004.00
2019-05-12T21:06:41.783Z,101031.00
2019-05-12T21:09:10.175Z,101031.00
2019-05-12T21:11:44.252Z,101021.00
2019-05-12T21:14:17.345Z,101034.00
2019-05-12T21:16:50.237Z,101038.00
2019-05-12T21:19:24.097Z,101041.00
2019-05-12T21:21:59.086Z,101043.00
2019-05-12T21:24:39.138Z,101048.00
2019-05-12T21:27:09.398Z,101044.00
2019-05-12T21:29:43.271Z,101034.00
2019-05-12T21:32:16.974Z,101055.00
2019-05-12T21:34:52.220Z,101064.00
2019-05-12T21:37:25.430Z,101069.00
2019-05-12T21:39:57.747Z,101075.00
2019-05-12T21:42:30.570Z,101084.00
2019-05-12T21:45:05.292Z,101082.00
2019-05-12T21:47:42.726Z,101081.00
2019-05-12T21:50:14.078Z,101078.00
2019-05-12T21:52:46.442Z,101080.00
2019-05-12T21:55:21.988Z,101084.00
2019-05-12T21:57:53.771Z,101096.00
2019-05-12T22:00:35.876Z,101096.00
2019-05-12T22:03:14.758Z,101088.00
2019-05-12T22:05:51.683Z,101089.00
2019-05-12T22:08:22.180Z,101106.00
2019-05-12T22:10:54.217Z,101129.00
2019-05-12T22:13:27.358Z,101141.00
2019-05-12T22:16:00.053Z,101123.00
2019-05-12T22:18:33.364Z,101112.00
2019-05-12T22:21:07.158Z,101106.00
2019-05-12T22:23:42.951Z,101121.00
2019-05-12T22:26:14.557Z,101107.00
2019-05-12T22:28:50.888Z,101111.00
2019-05-12T22:31:24.218Z,101121.00
2019-05-12T22:33:56.963Z,101133.00
2019-05-12T22:36:30.261Z,101127.00
2019-05-12T22:39:05.125Z,101119.00
2019-05-12T22:41:41.395Z,101118.00
2019-05-12T22:44:18.449Z,101131.00
2019-05-12T22:46:46.690Z,101114.00
2019-05-12T22:49:21.279Z,101124.00
2019-05-12T22:52:02.247Z,101125.00
2019-05-12T22:54:29.050Z,101130.00
2019-05-12T22:57:03.893Z,101128.00
2019-05-12T22:59:40.306Z,101137.00
2019-05-12T23:02:15.255Z,101148.00
2019-05-12T23:04:45.092Z,101137.00
2019-05-12T23:07:19.059Z,101138.00
2019-05-12T23:09:53.767Z,101150.00
2019-05-12T23:12:26.239Z,101150.00
2019-05-12T23:15:02.968Z,101150.00
2019-05-12T23:17:33.886Z,101135.00
2019-05-12T23:20:07.824Z,101139.00
2019-05-12T23:22:40.659Z,101150.00
2019-05-12T23:25:19.923Z,101170.00
2019-05-12T23:27:47.856Z,101148.00
2019-05-12T23:30:23.998Z,101156.00
2019-05-12T23:32:55.270Z,101150.00
2019-05-12T23:35:37.245Z,101154.00
2019-05-12T23:38:04.519Z,101150.00
2019-05-12T23:40:38.602Z,101144.00
2019-05-12T23:43:11.596Z,101125.00
2019-05-12T23:45:44.864Z,101143.00
2019-05-12T23:48:18.891Z,101152.00
2019-05-12T23:50:54.136Z,101150.00
2019-05-12T23:53:25.903Z,101138.00
2019-05-12T23:55:58.716Z,101146.00
2019-05-12T23:58:31.965Z,101145.00
